Time;durP1;ratioP1;P1;durP2;ratioP2;P2;SDS_P1;SDS_P2;PMS_P1;PMS_P2;Temp;Humidity;BMP_temperature;BMP_pressure;BME280_temperature;BME280_humidity;BME280_pressure;Samples;Min_cycle;Max_cycle;Signal;HPM_P1;HPM_P2
2021/07/11 00:00:52;;;;;;;4.65;3.50;;;;;;;;;;5035019;28;20535;-46
2021/07/11 00:03:18;;;;;;;3.78;3.47;;;;;;;;;;5027384;28;20191;-46
2021/07/11 00:05:44;;;;;;;4.68;3.53;;;;;;;;;;5020476;28;20482;-46
2021/07/11 00:08:10;;;;;;;3.53;3.22;;;;;;;;;;5035300;28;20546;-46
2021/07/11 00:10:36;;;;;;;3.90;3.60;;;;;;;;;;5046056;28;20229;-46
2021/07/11 00:13:03;;;;;;;3.78;3.47;;;;;;;;;;5030685;28;20586;-46
2021/07/11 00:15:29;;;;;;;3.47;3.28;;;;;;;;;;5022192;28;20179;-47
2021/07/11 00:17:56;;;;;;;3.78;3.40;;;;;;;;;;5034385;28;20582;-47
2021/07/11 00:20:22;;;;;;;3.90;3.50;;;;;;;;;;5035110;28;20203;-47
2021/07/11 00:22:48;;;;;;;3.88;3.58;;;;;;;;;;5034530;28;20187;-46
2021/07/11 00:25:15;;;;;;;3.92;3.53;;;;;;;;;;5015772;28;20172;-46
2021/07/11 00:27:41;;;;;;;3.50;3.25;;;;;;;;;;5033798;28;20188;-46
2021/07/11 00:30:08;;;;;;;3.83;3.53;;;;;;;;;;5034376;28;20253;-46
2021/07/11 00:32:34;;;;;;;3.90;3.20;;;;;;;;;;5017837;28;20188;-46
2021/07/11 00:35:00;;;;;;;3.40;3.13;;;;;;;;;;5015195;28;20172;-46
2021/07/11 00:37:26;;;;;;;3.80;3.40;;;;;;;;;;5014527;28;20184;-46
2021/07/11 00:39:52;;;;;;;3.53;3.28;;;;;;;;;;5026718;28;20273;-46
2021/07/11 00:42:18;;;;;;;3.65;3.22;;;;;;;;;;5033885;28;20172;-46
2021/07/11 00:44:44;;;;;;;3.60;3.03;;;;;;;;;;5034825;28;20176;-46
2021/07/11 00:47:13;;;;;;;5.35;3.42;;;;;;;;;;5034265;28;20172;-46
2021/07/11 00:49:43;;;;;;;3.35;3.05;;;;;;;;;;5028200;28;20184;-46
2021/07/11 00:52:10;;;;;;;4.00;3.60;;;;;;;;;;5014591;28;20192;-47
2021/07/11 00:54:36;;;;;;;3.55;3.20;;;;;;;;;;5014817;28;20181;-46
2021/07/11 00:57:02;;;;;;;3.95;3.58;;;;;;;;;;5032474;28;20187;-46
2021/07/11 00:59:28;;;;;;;3.42;3.13;;;;;;;;;;5029990;28;20287;-46
2021/07/11 01:01:54;;;;;;;3.55;3.25;;;;;;;;;;5025256;28;20203;-46
2021/07/11 01:04:40;;;;;;;3.50;3.20;;;;;;;;;;5034351;28;20226;-46
2021/07/11 01:07:08;;;;;;;3.10;2.90;;;;;;;;;;5033940;28;20501;-46
2021/07/11 01:09:42;;;;;;;3.17;2.97;;;;;;;;;;5033486;28;20199;-46
2021/07/11 01:12:15;;;;;;;3.83;3.10;;;;;;;;;;5031847;28;20257;-46
2021/07/11 01:14:43;;;;;;;3.40;3.20;;;;;;;;;;5033870;28;20180;-46
2021/07/11 01:17:10;;;;;;;3.72;3.40;;;;;;;;;;5033601;28;20251;-46
2021/07/11 01:19:36;;;;;;;3.40;3.10;;;;;;;;;;5033277;28;20199;-46
2021/07/11 01:22:03;;;;;;;5.07;3.53;;;;;;;;;;5037658;28;20185;-46
2021/07/11 01:24:33;;;;;;;3.30;3.00;;;;;;;;;;5024800;28;20527;-46
2021/07/11 01:27:01;;;;;;;3.30;3.00;;;;;;;;;;5036579;28;20171;-46
2021/07/11 01:29:27;;;;;;;3.50;3.20;;;;;;;;;;5037193;28;20569;-46
2021/07/11 01:31:53;;;;;;;3.30;3.10;;;;;;;;;;5037207;28;20591;-46
2021/07/11 01:34:19;;;;;;;3.85;3.55;;;;;;;;;;5037855;28;20237;-46
2021/07/11 01:36:46;;;;;;;3.50;3.20;;;;;;;;;;5037715;28;20172;-47
2021/07/11 01:39:12;;;;;;;4.05;3.28;;;;;;;;;;5037866;28;20199;-46
2021/07/11 01:41:39;;;;;;;4.18;3.10;;;;;;;;;;5037219;28;20207;-46
2021/07/11 01:44:06;;;;;;;3.25;2.95;;;;;;;;;;5036495;28;20188;-46
2021/07/11 01:46:32;;;;;;;4.03;3.25;;;;;;;;;;5037167;28;20712;-46
2021/07/11 01:49:00;;;;;;;3.53;3.22;;;;;;;;;;5027569;28;20191;-46
2021/07/11 01:51:26;;;;;;;3.20;2.83;;;;;;;;;;5034270;28;20733;-46
2021/07/11 01:53:53;;;;;;;3.45;3.00;;;;;;;;;;5037474;28;20229;-46
2021/07/11 01:56:19;;;;;;;3.00;2.80;;;;;;;;;;5036920;28;20195;-46
2021/07/11 01:58:45;;;;;;;3.50;3.20;;;;;;;;;;5036642;28;20231;-47
2021/07/11 02:01:13;;;;;;;3.40;3.10;;;;;;;;;;5037160;28;20235;-46
2021/07/11 02:03:39;;;;;;;3.35;3.05;;;;;;;;;;5037471;28;20180;-46
2021/07/11 02:06:06;;;;;;;3.80;3.28;;;;;;;;;;5036884;28;20254;-46
2021/07/11 02:08:33;;;;;;;3.10;2.80;;;;;;;;;;5035989;28;20198;-46
2021/07/11 02:11:00;;;;;;;4.78;3.30;;;;;;;;;;5037385;28;20199;-46
2021/07/11 02:13:32;;;;;;;4.50;3.13;;;;;;;;;;5036587;28;20180;-46
2021/07/11 02:16:06;;;;;;;3.80;3.40;;;;;;;;;;5036932;28;20215;-46
2021/07/11 02:18:33;;;;;;;3.63;3.28;;;;;;;;;;5027145;28;20234;-47
2021/07/11 02:20:59;;;;;;;4.57;2.90;;;;;;;;;;5022851;28;20177;-46
2021/07/11 02:23:26;;;;;;;3.38;3.17;;;;;;;;;;5030832;28;20458;-46
2021/07/11 02:25:52;;;;;;;3.20;2.90;;;;;;;;;;5036769;28;20175;-46
2021/07/11 02:28:20;;;;;;;5.00;3.15;;;;;;;;;;5035914;28;20250;-46
2021/07/11 02:30:54;;;;;;;3.08;2.80;;;;;;;;;;5037086;28;20535;-46
2021/07/11 02:33:27;;;;;;;3.45;3.15;;;;;;;;;;5036004;28;20698;-46
2021/07/11 02:35:54;;;;;;;4.43;3.10;;;;;;;;;;5036370;28;20622;-46
2021/07/11 02:38:20;;;;;;;3.60;3.17;;;;;;;;;;5019947;28;20219;-46
2021/07/11 02:40:46;;;;;;;3.50;3.20;;;;;;;;;;5017040;28;20184;-46
2021/07/11 02:43:13;;;;;;;4.22;2.90;;;;;;;;;;5034025;28;20190;-46
2021/07/11 02:45:42;;;;;;;2.95;2.70;;;;;;;;;;5036813;28;20171;-46
2021/07/11 02:48:10;;;;;;;2.92;2.72;;;;;;;;;;5035776;28;20184;-46
2021/07/11 02:50:37;;;;;;;4.13;2.72;;;;;;;;;;5036701;28;20180;-46
2021/07/11 02:53:03;;;;;;;3.17;2.90;;;;;;;;;;5036271;28;20188;-46
2021/07/11 02:55:34;;;;;;;3.33;3.10;;;;;;;;;;5036690;28;20179;-46
2021/07/11 02:58:05;;;;;;;3.35;3.05;;;;;;;;;;5022126;28;20514;-46
2021/07/11 03:00:31;;;;;;;3.15;2.95;;;;;;;;;;5035751;28;20462;-46
2021/07/11 03:02:57;;;;;;;5.30;2.83;;;;;;;;;;5036211;28;20198;-46
2021/07/11 03:05:24;;;;;;;3.50;3.20;;;;;;;;;;5036569;28;20172;-47
2021/07/11 03:07:50;;;;;;;3.05;2.85;;;;;;;;;;5023820;28;20184;-46
2021/07/11 03:10:16;;;;;;;2.80;2.60;;;;;;;;;;5016586;28;20164;-46
2021/07/11 03:12:42;;;;;;;3.95;3.10;;;;;;;;;;5029522;28;20212;-46
2021/07/11 03:15:09;;;;;;;2.88;2.67;;;;;;;;;;5036248;28;20845;-46
2021/07/11 03:17:35;;;;;;;2.90;2.70;;;;;;;;;;5026057;28;20219;-46
2021/07/11 03:20:02;;;;;;;7.80;3.35;;;;;;;;;;5020873;28;20207;-46
2021/07/11 03:22:29;;;;;;;2.95;2.75;;;;;;;;;;5035634;28;20176;-46
2021/07/11 03:25:00;;;;;;;3.83;2.83;;;;;;;;;;5036234;28;20180;-46
2021/07/11 03:27:30;;;;;;;3.50;2.72;;;;;;;;;;5036967;28;20500;-46
2021/07/11 03:30:05;;;;;;;3.78;2.97;;;;;;;;;;5048334;28;20568;-46
2021/07/11 03:32:36;;;;;;;4.22;3.08;;;;;;;;;;5035760;28;20190;-46
2021/07/11 03:35:03;;;;;;;4.95;2.80;;;;;;;;;;5035514;28;20251;-46
2021/07/11 03:37:30;;;;;;;3.47;3.17;;;;;;;;;;5035500;28;20808;-46
2021/07/11 03:39:56;;;;;;;3.17;2.88;;;;;;;;;;5035669;28;20218;-46
2021/07/11 03:42:24;;;;;;;3.15;2.95;;;;;;;;;;5035560;28;20509;-46
2021/07/11 03:44:54;;;;;;;4.28;3.00;;;;;;;;;;5034241;28;20180;-46
2021/07/11 03:47:21;;;;;;;4.68;3.00;;;;;;;;;;5015140;28;20177;-46
2021/07/11 03:49:49;;;;;;;3.20;2.88;;;;;;;;;;5016149;28;20169;-46
2021/07/11 03:52:18;;;;;;;3.92;3.10;;;;;;;;;;5032546;28;20199;-46
2021/07/11 03:54:44;;;;;;;4.15;2.75;;;;;;;;;;5034679;28;20179;-46
2021/07/11 03:57:11;;;;;;;2.88;2.58;;;;;;;;;;5034848;28;20184;-46
2021/07/11 03:59:39;;;;;;;3.60;3.30;;;;;;;;;;5035345;28;20503;-46
2021/07/11 04:02:06;;;;;;;3.20;2.90;;;;;;;;;;5035013;28;20227;-46
2021/07/11 04:04:33;;;;;;;3.60;3.30;;;;;;;;;;5024944;28;20243;-46
2021/07/11 04:07:00;;;;;;;3.42;3.08;;;;;;;;;;5020974;28;20179;-46
2021/07/11 04:09:26;;;;;;;3.30;3.00;;;;;;;;;;5035167;28;20172;-46
2021/07/11 04:11:52;;;;;;;3.33;2.95;;;;;;;;;;5034651;28;20180;-46
2021/07/11 04:14:19;;;;;;;3.22;2.92;;;;;;;;;;5034284;28;20233;-46
2021/07/11 04:16:47;;;;;;;2.83;2.58;;;;;;;;;;5034613;28;20176;-46
2021/07/11 04:19:13;;;;;;;3.50;2.75;;;;;;;;;;5034758;28;20594;-46
2021/07/11 04:21:40;;;;;;;3.20;2.60;;;;;;;;;;5029194;28;20183;-46
2021/07/11 04:24:06;;;;;;;3.53;2.80;;;;;;;;;;5026519;28;20555;-46
2021/07/11 04:26:34;;;;;;;3.58;3.25;;;;;;;;;;5018401;28;20806;-46
2021/07/11 04:29:01;;;;;;;4.35;3.30;;;;;;;;;;5034497;28;20176;-46
2021/07/11 04:31:27;;;;;;;7.80;3.22;;;;;;;;;;5034185;28;20195;-47
2021/07/11 04:33:53;;;;;;;3.78;2.95;;;;;;;;;;5034488;28;20187;-47
2021/07/11 04:36:19;;;;;;;3.80;3.50;;;;;;;;;;5034557;28;20301;-47
2021/07/11 04:38:45;;;;;;;3.00;2.80;;;;;;;;;;5034193;28;20665;-47
2021/07/11 04:41:11;;;;;;;3.58;3.28;;;;;;;;;;5034126;28;20176;-47
2021/07/11 04:43:38;;;;;;;3.63;3.33;;;;;;;;;;5034138;28;20182;-46
2021/07/11 04:46:04;;;;;;;4.03;3.35;;;;;;;;;;5034129;28;20274;-47
2021/07/11 04:48:31;;;;;;;3.50;3.20;;;;;;;;;;5034585;28;20227;-46
2021/07/11 04:50:57;;;;;;;5.00;3.10;;;;;;;;;;5034470;28;20262;-46
2021/07/11 04:53:24;;;;;;;5.00;3.22;;;;;;;;;;5033452;28;20199;-46
2021/07/11 04:55:51;;;;;;;6.53;3.40;;;;;;;;;;5033553;28;20203;-46
2021/07/11 04:58:17;;;;;;;3.63;3.33;;;;;;;;;;5033910;28;20211;-46
2021/07/11 05:00:44;;;;;;;3.60;3.10;;;;;;;;;;5034540;28;20191;-46
2021/07/11 05:03:10;;;;;;;2.75;2.47;;;;;;;;;;5033319;28;20184;-46
2021/07/11 05:05:36;;;;;;;3.90;3.58;;;;;;;;;;5034295;28;20172;-46
2021/07/11 05:08:03;;;;;;;3.60;3.30;;;;;;;;;;5033463;28;20180;-47
2021/07/11 05:10:29;;;;;;;6.70;3.80;;;;;;;;;;5034108;28;20567;-47
2021/07/11 05:12:55;;;;;;;4.40;3.97;;;;;;;;;;5033614;28;20233;-46
2021/07/11 05:15:21;;;;;;;4.55;3.83;;;;;;;;;;5034548;28;20172;-46
2021/07/11 05:17:47;;;;;;;6.22;3.67;;;;;;;;;;5033642;28;20188;-46
2021/07/11 05:20:13;;;;;;;4.88;3.90;;;;;;;;;;5034441;28;20186;-46
2021/07/11 05:22:39;;;;;;;5.93;3.72;;;;;;;;;;5032969;28;20184;-46
2021/07/11 05:25:05;;;;;;;5.47;3.92;;;;;;;;;;5030769;28;20229;-46
2021/07/11 05:27:31;;;;;;;4.15;3.80;;;;;;;;;;5033386;28;20775;-47
2021/07/11 05:29:57;;;;;;;4.43;4.03;;;;;;;;;;5034177;28;20176;-46
2021/07/11 05:32:23;;;;;;;5.28;3.78;;;;;;;;;;5029950;28;20176;-46
2021/07/11 05:34:49;;;;;;;5.68;3.70;;;;;;;;;;5033830;28;20563;-47
2021/07/11 05:37:15;;;;;;;5.45;3.80;;;;;;;;;;5033390;28;20184;-46
2021/07/11 05:39:41;;;;;;;7.20;4.07;;;;;;;;;;5034047;28;20212;-46
2021/07/11 05:42:08;;;;;;;4.88;3.80;;;;;;;;;;5032966;28;20191;-46
2021/07/11 05:44:33;;;;;;;6.38;3.97;;;;;;;;;;5034229;28;20254;-46
2021/07/11 05:46:59;;;;;;;5.80;3.90;;;;;;;;;;5033799;28;20263;-46
2021/07/11 05:49:25;;;;;;;5.10;3.60;;;;;;;;;;5034094;28;20175;-46
2021/07/11 05:51:51;;;;;;;4.85;4.13;;;;;;;;;;5032983;28;20617;-46
2021/07/11 05:54:17;;;;;;;4.10;3.55;;;;;;;;;;5033704;28;20180;-46
2021/07/11 05:56:43;;;;;;;5.55;3.80;;;;;;;;;;5033096;28;20226;-47
2021/07/11 05:59:09;;;;;;;5.82;3.58;;;;;;;;;;5032699;28;20207;-47
2021/07/11 06:01:35;;;;;;;4.95;3.38;;;;;;;;;;5017588;28;20592;-47
2021/07/11 06:04:01;;;;;;;5.22;3.60;;;;;;;;;;5020565;28;20184;-46
2021/07/11 06:06:27;;;;;;;6.03;3.53;;;;;;;;;;5029982;28;20184;-46
2021/07/11 06:08:53;;;;;;;3.47;3.17;;;;;;;;;;5027632;28;20202;-46
2021/07/11 06:11:20;;;;;;;3.20;2.90;;;;;;;;;;5028109;28;20536;-46
2021/07/11 06:13:46;;;;;;;3.20;2.90;;;;;;;;;;5032355;28;20258;-46
2021/07/11 06:16:12;;;;;;;2.83;2.60;;;;;;;;;;5027896;28;20183;-46
2021/07/11 06:18:38;;;;;;;3.13;2.83;;;;;;;;;;5032454;28;20203;-47
2021/07/11 06:21:04;;;;;;;2.85;2.65;;;;;;;;;;5028369;28;20187;-47
2021/07/11 06:23:30;;;;;;;9.45;2.83;;;;;;;;;;5022014;28;20547;-46
2021/07/11 06:25:56;;;;;;;3.42;2.60;;;;;;;;;;5033473;28;20823;-46
2021/07/11 06:28:22;;;;;;;3.00;2.70;;;;;;;;;;5025213;28;20176;-46
2021/07/11 06:30:48;;;;;;;3.53;3.22;;;;;;;;;;5023366;28;20183;-46
2021/07/11 06:33:14;;;;;;;2.97;2.72;;;;;;;;;;5037007;28;20561;-46
2021/07/11 06:35:40;;;;;;;4.28;3.05;;;;;;;;;;5037138;28;20200;-46
2021/07/11 06:38:06;;;;;;;3.10;2.90;;;;;;;;;;5036109;28;20753;-46
2021/07/11 06:40:32;;;;;;;2.97;2.75;;;;;;;;;;5036839;28;20192;-46
2021/07/11 06:42:58;;;;;;;3.80;2.60;;;;;;;;;;5035732;28;20238;-46
2021/07/11 06:45:24;;;;;;;3.28;2.92;;;;;;;;;;5049067;28;20206;-46
2021/07/11 06:47:50;;;;;;;3.20;2.83;;;;;;;;;;5056316;28;20250;-46
2021/07/11 06:50:17;;;;;;;3.65;2.92;;;;;;;;;;5056814;28;20156;-46
2021/07/11 06:52:44;;;;;;;3.42;2.92;;;;;;;;;;5040992;28;20586;-46
2021/07/11 06:55:11;;;;;;;3.42;2.53;;;;;;;;;;5036708;28;20491;-46
2021/07/11 06:57:38;;;;;;;2.95;2.75;;;;;;;;;;5035550;28;20184;-46
2021/07/11 07:00:05;;;;;;;3.25;2.90;;;;;;;;;;5035852;28;20563;-46
2021/07/11 07:02:31;;;;;;;2.80;2.60;;;;;;;;;;5036281;28;20251;-46
2021/07/11 07:04:57;;;;;;;2.78;2.58;;;;;;;;;;5036611;28;20172;-47
2021/07/11 07:07:23;;;;;;;3.38;2.80;;;;;;;;;;5035621;28;20257;-47
2021/07/11 07:09:49;;;;;;;2.90;2.70;;;;;;;;;;5036524;28;20178;-46
2021/07/11 07:12:15;;;;;;;3.95;3.47;;;;;;;;;;5035617;28;20267;-46
2021/07/11 07:14:41;;;;;;;3.08;2.88;;;;;;;;;;5034183;28;20271;-46
2021/07/11 07:17:07;;;;;;;3.67;2.65;;;;;;;;;;5035672;28;20266;-46
2021/07/11 07:19:33;;;;;;;3.47;3.00;;;;;;;;;;5036011;28;20206;-46
2021/07/11 07:21:59;;;;;;;3.65;2.85;;;;;;;;;;5035775;28;20605;-46
2021/07/11 07:24:25;;;;;;;3.17;2.80;;;;;;;;;;5035544;28;20187;-46
2021/07/11 07:26:51;;;;;;;3.33;3.03;;;;;;;;;;5035146;28;20222;-46
2021/07/11 07:29:17;;;;;;;2.78;2.58;;;;;;;;;;5035388;28;20200;-46
2021/07/11 07:31:44;;;;;;;3.60;3.30;;;;;;;;;;5034074;28;20215;-46
2021/07/11 07:34:10;;;;;;;4.30;2.85;;;;;;;;;;5019925;28;20220;-47
2021/07/11 07:36:36;;;;;;;3.03;2.70;;;;;;;;;;5030264;28;20211;-47
2021/07/11 07:39:03;;;;;;;4.18;3.05;;;;;;;;;;5035733;28;20239;-47
2021/07/11 07:41:29;;;;;;;3.15;2.92;;;;;;;;;;5035473;28;20266;-47
2021/07/11 07:43:55;;;;;;;3.67;3.20;;;;;;;;;;5036039;28;20574;-47
2021/07/11 07:46:21;;;;;;;3.58;3.22;;;;;;;;;;5035452;28;20167;-47
2021/07/11 07:48:47;;;;;;;3.33;3.03;;;;;;;;;;5022400;28;20227;-46
2021/07/11 07:51:13;;;;;;;4.40;3.58;;;;;;;;;;5022997;28;20187;-46
2021/07/11 07:53:39;;;;;;;3.55;3.25;;;;;;;;;;5035788;28;20180;-46
2021/07/11 07:56:05;;;;;;;3.30;2.80;;;;;;;;;;5033339;28;20180;-46
2021/07/11 07:58:31;;;;;;;4.30;3.50;;;;;;;;;;5034799;28;20239;-46
2021/07/11 08:00:57;;;;;;;5.85;3.63;;;;;;;;;;5035378;28;20222;-46
2021/07/11 08:03:23;;;;;;;3.47;3.13;;;;;;;;;;5035075;28;20485;-46
2021/07/11 08:05:49;;;;;;;4.15;3.50;;;;;;;;;;5034448;28;20184;-46
2021/07/11 08:08:15;;;;;;;4.05;3.45;;;;;;;;;;5035234;28;20451;-46
2021/07/11 08:10:41;;;;;;;4.25;3.83;;;;;;;;;;5034458;28;20559;-46
2021/07/11 08:13:07;;;;;;;3.50;3.20;;;;;;;;;;5034916;28;20222;-46
2021/07/11 08:15:33;;;;;;;3.85;3.55;;;;;;;;;;5035191;28;20229;-46
2021/07/11 08:18:00;;;;;;;5.03;3.47;;;;;;;;;;5034427;28;20192;-46
2021/07/11 08:20:26;;;;;;;4.68;3.25;;;;;;;;;;5027131;28;20184;-46
2021/07/11 08:22:53;;;;;;;3.85;3.25;;;;;;;;;;5017733;28;20230;-46
2021/07/11 08:25:19;;;;;;;4.38;3.58;;;;;;;;;;5033895;28;20183;-46
2021/07/11 08:27:46;;;;;;;3.45;3.15;;;;;;;;;;5034300;28;20478;-46
2021/07/11 08:30:12;;;;;;;3.83;3.25;;;;;;;;;;5034381;28;20171;-46
2021/07/11 08:32:39;;;;;;;3.90;3.50;;;;;;;;;;5034780;28;20176;-46
2021/07/11 08:35:05;;;;;;;5.55;4.00;;;;;;;;;;5034777;28;20915;-46
2021/07/11 08:37:31;;;;;;;3.78;3.38;;;;;;;;;;5028544;28;20188;-46
2021/07/11 08:39:57;;;;;;;5.50;3.33;;;;;;;;;;5021495;28;20231;-46
2021/07/11 08:42:23;;;;;;;3.70;3.40;;;;;;;;;;5033400;28;20215;-46
2021/07/11 08:44:50;;;;;;;5.10;3.40;;;;;;;;;;5034392;28;20454;-46
2021/07/11 08:47:16;;;;;;;3.85;3.55;;;;;;;;;;5033653;28;20219;-46
2021/07/11 08:49:42;;;;;;;4.35;3.30;;;;;;;;;;5034420;28;20542;-46
2021/07/11 08:52:08;;;;;;;4.00;3.70;;;;;;;;;;5034562;28;20191;-46
2021/07/11 08:54:34;;;;;;;5.15;4.32;;;;;;;;;;5033747;28;20198;-46
2021/07/11 08:57:00;;;;;;;3.92;3.63;;;;;;;;;;5033660;28;20179;-46
2021/07/11 08:59:27;;;;;;;5.43;3.80;;;;;;;;;;5034404;28;20226;-47
2021/07/11 09:01:54;;;;;;;4.85;3.85;;;;;;;;;;5034165;28;20174;-47
2021/07/11 09:04:19;;;;;;;5.97;3.67;;;;;;;;;;5034504;28;20172;-46
2021/07/11 09:06:53;;;;;;;3.90;3.55;;;;;;;;;;5034052;28;20602;-46
2021/07/11 09:09:26;;;;;;;4.05;3.75;;;;;;;;;;5028441;28;20176;-47
2021/07/11 09:11:59;;;;;;;5.10;3.50;;;;;;;;;;5025415;28;20234;-46
2021/07/11 09:14:26;;;;;;;4.10;3.70;;;;;;;;;;5033762;28;20180;-46
2021/07/11 09:16:54;;;;;;;3.85;3.55;;;;;;;;;;5033798;28;20172;-46
2021/07/11 09:19:22;;;;;;;3.90;3.60;;;;;;;;;;5015013;28;20208;-47
2021/07/11 09:21:56;;;;;;;3.70;3.40;;;;;;;;;;5029197;28;20190;-47
2021/07/11 09:24:23;;;;;;;4.30;3.58;;;;;;;;;;5033966;28;20194;-46
2021/07/11 09:26:52;;;;;;;3.80;3.45;;;;;;;;;;5023000;28;20556;-46
2021/07/11 09:29:29;;;;;;;4.00;3.60;;;;;;;;;;5034102;28;20184;-47
2021/07/11 09:31:55;;;;;;;4.22;3.70;;;;;;;;;;5034134;28;20171;-46
2021/07/11 09:34:23;;;;;;;4.57;3.90;;;;;;;;;;5032310;28;20184;-46
2021/07/11 09:37:01;;;;;;;3.67;3.38;;;;;;;;;;5033494;28;20164;-46
2021/07/11 09:39:27;;;;;;;3.90;3.60;;;;;;;;;;5033164;28;20606;-46
2021/07/11 09:41:53;;;;;;;4.45;3.50;;;;;;;;;;5028886;28;20177;-46
2021/07/11 09:44:19;;;;;;;4.40;3.17;;;;;;;;;;5035896;28;20424;-46
2021/07/11 09:46:45;;;;;;;4.03;3.72;;;;;;;;;;5035526;28;20520;-46
2021/07/11 09:49:18;;;;;;;4.70;3.78;;;;;;;;;;5037883;28;20199;-46
2021/07/11 09:51:44;;;;;;;3.85;3.55;;;;;;;;;;5037500;28;20184;-46
2021/07/11 09:54:14;;;;;;;4.07;3.67;;;;;;;;;;5037379;28;20473;-46
2021/07/11 09:56:40;;;;;;;4.25;3.75;;;;;;;;;;5021610;28;20258;-46
2021/07/11 09:59:07;;;;;;;3.80;3.50;;;;;;;;;;5026940;28;20294;-46
2021/07/11 10:01:35;;;;;;;3.85;3.55;;;;;;;;;;5017920;28;20165;-46
2021/07/11 10:04:01;;;;;;;4.15;3.75;;;;;;;;;;5026405;28;20241;-47
2021/07/11 10:06:27;;;;;;;4.20;3.80;;;;;;;;;;5036785;28;20208;-46
2021/07/11 10:08:54;;;;;;;4.15;3.67;;;;;;;;;;5044713;28;20183;-46
2021/07/11 10:11:21;;;;;;;4.28;3.90;;;;;;;;;;5038175;28;20179;-46
2021/07/11 10:13:48;;;;;;;3.97;3.60;;;;;;;;;;5053427;28;20547;-46
2021/07/11 10:16:14;;;;;;;4.47;4.18;;;;;;;;;;5019600;28;20212;-46
2021/07/11 10:18:41;;;;;;;4.25;3.75;;;;;;;;;;5020210;28;20200;-46
2021/07/11 10:21:08;;;;;;;3.97;3.65;;;;;;;;;;5036820;28;20172;-46
2021/07/11 10:23:36;;;;;;;4.32;3.63;;;;;;;;;;5036283;28;20191;-46
2021/07/11 10:26:04;;;;;;;3.85;3.55;;;;;;;;;;5036835;28;20436;-46
2021/07/11 10:28:31;;;;;;;4.20;3.83;;;;;;;;;;5036386;28;20184;-46
2021/07/11 10:30:58;;;;;;;4.13;3.63;;;;;;;;;;5034272;28;20188;-46
2021/07/11 10:33:24;;;;;;;3.95;3.33;;;;;;;;;;5024701;28;20553;-45
2021/07/11 10:35:58;;;;;;;4.18;3.78;;;;;;;;;;5036107;28;20250;-46
2021/07/11 10:38:27;;;;;;;4.22;3.85;;;;;;;;;;5036908;28;20188;-46
2021/07/11 10:40:53;;;;;;;3.60;3.30;;;;;;;;;;5037014;28;20190;-46
2021/07/11 10:43:19;;;;;;;3.70;3.40;;;;;;;;;;5036725;28;20314;-46
2021/07/11 10:45:46;;;;;;;4.15;3.85;;;;;;;;;;5036227;28;20190;-46
2021/07/11 10:48:12;;;;;;;3.45;3.15;;;;;;;;;;5034541;28;20637;-46
2021/07/11 10:50:42;;;;;;;3.72;3.42;;;;;;;;;;5032268;28;20456;-46
2021/07/11 10:53:16;;;;;;;4.13;3.70;;;;;;;;;;5022560;28;20195;-46
2021/07/11 10:55:43;;;;;;;3.75;3.45;;;;;;;;;;5036695;28;20180;-46
2021/07/11 10:58:10;;;;;;;3.80;3.50;;;;;;;;;;5035665;28;20203;-46
2021/07/11 11:00:36;;;;;;;4.20;3.80;;;;;;;;;;5036775;28;20172;-46
2021/07/11 11:03:14;;;;;;;3.88;3.58;;;;;;;;;;5036291;28;20179;-46
2021/07/11 11:05:43;;;;;;;6.03;3.67;;;;;;;;;;5033799;28;20238;-47
2021/07/11 11:08:10;;;;;;;4.20;3.72;;;;;;;;;;5017916;28;20291;-47
2021/07/11 11:10:37;;;;;;;4.00;3.70;;;;;;;;;;5023417;28;20184;-47
2021/07/11 11:13:05;;;;;;;6.95;3.58;;;;;;;;;;5035968;28;20203;-47
2021/07/11 11:15:44;;;;;;;3.85;3.55;;;;;;;;;;5036014;28;20262;-46
2021/07/11 11:18:14;;;;;;;5.55;3.42;;;;;;;;;;5036067;28;20208;-46
2021/07/11 11:20:40;;;;;;;3.60;3.30;;;;;;;;;;5033109;28;20579;-46
2021/07/11 11:23:10;;;;;;;4.47;3.13;;;;;;;;;;5034783;28;20602;-46
2021/07/11 11:25:36;;;;;;;6.70;3.65;;;;;;;;;;5036760;28;20233;-46
2021/07/11 11:28:03;;;;;;;7.70;4.15;;;;;;;;;;5034825;28;20190;-46
2021/07/11 11:30:29;;;;;;;5.40;4.53;;;;;;;;;;5035875;28;20184;-46
2021/07/11 11:32:56;;;;;;;8.07;4.43;;;;;;;;;;5035549;28;20234;-46
2021/07/11 11:35:24;;;;;;;6.95;4.88;;;;;;;;;;5035639;28;20282;-46
2021/07/11 11:37:51;;;;;;;7.80;4.80;;;;;;;;;;5033917;28;20540;-46
2021/07/11 11:40:18;;;;;;;9.00;5.30;;;;;;;;;;5034671;28;20172;-46
2021/07/11 11:42:45;;;;;;;10.40;5.40;;;;;;;;;;5033372;28;20180;-46
2021/07/11 11:45:12;;;;;;;7.85;5.65;;;;;;;;;;5035595;28;20518;-46
2021/07/11 11:47:38;;;;;;;7.22;5.95;;;;;;;;;;5035076;28;20184;-46
2021/07/11 11:50:15;;;;;;;7.72;6.10;;;;;;;;;;5035728;28;20892;-46
2021/07/11 11:52:41;;;;;;;7.00;5.35;;;;;;;;;;5034165;28;20294;-46
2021/07/11 11:55:08;;;;;;;5.20;4.70;;;;;;;;;;5033350;28;20211;-46
2021/07/11 11:57:36;;;;;;;4.30;3.90;;;;;;;;;;5025867;28;20187;-46
2021/07/11 12:00:03;;;;;;;4.57;4.10;;;;;;;;;;5032129;28;20203;-46
2021/07/11 12:02:32;;;;;;;4.55;3.95;;;;;;;;;;5029901;28;20196;-46
2021/07/11 12:05:07;;;;;;;4.78;3.92;;;;;;;;;;5032196;28;20172;-46
2021/07/11 12:07:33;;;;;;;5.32;4.20;;;;;;;;;;5033424;28;20223;-46
2021/07/11 12:09:59;;;;;;;5.30;3.65;;;;;;;;;;5031905;28;20212;-46
2021/07/11 12:12:26;;;;;;;7.68;3.85;;;;;;;;;;5030569;28;20214;-46
2021/07/11 12:14:52;;;;;;;4.68;3.67;;;;;;;;;;5016522;28;20207;-46
2021/07/11 12:17:18;;;;;;;5.22;3.58;;;;;;;;;;5018878;28;20226;-46
2021/07/11 12:19:45;;;;;;;3.67;3.38;;;;;;;;;;5034820;28;20206;-46
2021/07/11 12:22:18;;;;;;;3.55;3.22;;;;;;;;;;5034728;28;20198;-46
2021/07/11 12:24:46;;;;;;;3.50;3.20;;;;;;;;;;5034893;28;20664;-46
2021/07/11 12:27:13;;;;;;;4.40;3.53;;;;;;;;;;5029186;28;20499;-46
2021/07/11 12:29:40;;;;;;;4.13;3.10;;;;;;;;;;5030570;28;20214;-46
2021/07/11 12:32:06;;;;;;;4.30;3.20;;;;;;;;;;5034414;28;20628;-47
2021/07/11 12:34:33;;;;;;;3.50;3.20;;;;;;;;;;5029599;28;20239;-47
2021/07/11 12:37:00;;;;;;;3.13;2.92;;;;;;;;;;5030843;28;20186;-47
2021/07/11 12:39:28;;;;;;;3.50;3.05;;;;;;;;;;5034785;28;20290;-47
2021/07/11 12:41:54;;;;;;;4.65;3.15;;;;;;;;;;5034660;28;20252;-47
2021/07/11 12:44:37;;;;;;;2.97;2.78;;;;;;;;;;5033750;28;20609;-46
2021/07/11 12:47:12;;;;;;;4.50;2.70;;;;;;;;;;5034031;28;20168;-47
2021/07/11 12:49:48;;;;;;;2.95;2.75;;;;;;;;;;5034627;28;20574;-47
2021/07/11 12:52:15;;;;;;;2.90;2.60;;;;;;;;;;5034372;28;20206;-47
2021/07/11 12:54:41;;;;;;;2.90;2.70;;;;;;;;;;5034451;28;20191;-47
2021/07/11 12:57:07;;;;;;;3.05;2.85;;;;;;;;;;5033663;28;20571;-47
2021/07/11 12:59:38;;;;;;;3.58;2.63;;;;;;;;;;5032628;28;20208;-47
2021/07/11 13:02:04;;;;;;;2.97;2.78;;;;;;;;;;5033914;28;20183;-47
2021/07/11 13:04:31;;;;;;;3.30;3.10;;;;;;;;;;5015464;28;20235;-46
2021/07/11 13:07:01;;;;;;;3.42;2.80;;;;;;;;;;5031295;28;20179;-46
2021/07/11 13:09:27;;;;;;;3.15;2.83;;;;;;;;;;5034415;28;20190;-46
2021/07/11 13:11:53;;;;;;;3.88;2.92;;;;;;;;;;5038851;28;20187;-46
2021/07/11 13:14:19;;;;;;;3.25;2.95;;;;;;;;;;5042374;28;20245;-47
2021/07/11 13:16:45;;;;;;;3.35;3.08;;;;;;;;;;5030912;28;20180;-46
2021/07/11 13:19:11;;;;;;;3.22;2.90;;;;;;;;;;5038210;28;20472;-46
2021/07/11 13:21:37;;;;;;;3.47;2.70;;;;;;;;;;5037786;28;20180;-46
2021/07/11 13:24:03;;;;;;;2.58;2.38;;;;;;;;;;5037737;28;20470;-46
2021/07/11 13:26:29;;;;;;;2.83;2.53;;;;;;;;;;5037558;28;20583;-46
2021/07/11 13:28:55;;;;;;;3.08;2.83;;;;;;;;;;5038163;28;20263;-46
2021/07/11 13:31:27;;;;;;;3.33;3.03;;;;;;;;;;5037873;28;20587;-46
2021/07/11 13:33:53;;;;;;;2.80;2.60;;;;;;;;;;5036424;28;20167;-46
2021/07/11 13:36:19;;;;;;;3.65;2.90;;;;;;;;;;5037706;28;20188;-46
2021/07/11 13:38:45;;;;;;;4.38;3.22;;;;;;;;;;5037534;28;20480;-46
2021/07/11 13:41:11;;;;;;;3.10;2.90;;;;;;;;;;5037771;28;20211;-46
2021/07/11 13:43:37;;;;;;;3.35;3.05;;;;;;;;;;5037756;28;20226;-46
2021/07/11 13:46:03;;;;;;;3.00;2.58;;;;;;;;;;5036187;28;20171;-46
2021/07/11 13:48:30;;;;;;;3.92;3.10;;;;;;;;;;5028228;28;20183;-46
2021/07/11 13:50:56;;;;;;;4.00;3.10;;;;;;;;;;5035452;28;20210;-46
2021/07/11 13:53:23;;;;;;;5.35;2.55;;;;;;;;;;5031962;28;20311;-46
2021/07/11 13:55:49;;;;;;;2.97;2.67;;;;;;;;;;5024065;28;20236;-46
2021/07/11 13:58:16;;;;;;;3.67;2.30;;;;;;;;;;5030866;28;20199;-46
2021/07/11 14:00:42;;;;;;;2.53;2.30;;;;;;;;;;5036578;28;20211;-46
2021/07/11 14:03:08;;;;;;;2.75;2.50;;;;;;;;;;5036236;28;20190;-46
2021/07/11 14:05:34;;;;;;;2.40;2.10;;;;;;;;;;5033120;28;20186;-47
2021/07/11 14:08:00;;;;;;;2.95;2.63;;;;;;;;;;5033163;28;20180;-47
2021/07/11 14:10:30;;;;;;;5.30;2.55;;;;;;;;;;5036352;28;20471;-46
2021/07/11 14:12:56;;;;;;;2.50;2.30;;;;;;;;;;5036724;28;20179;-46
2021/07/11 14:15:22;;;;;;;2.35;2.15;;;;;;;;;;5037049;28;20543;-46
2021/07/11 14:17:48;;;;;;;3.50;2.10;;;;;;;;;;5036567;28;20171;-46
2021/07/11 14:20:15;;;;;;;2.42;2.30;;;;;;;;;;5037422;28;20206;-46
2021/07/11 14:22:41;;;;;;;2.38;2.05;;;;;;;;;;5035806;28;20208;-46
2021/07/11 14:25:07;;;;;;;3.67;2.15;;;;;;;;;;5036100;28;20261;-47
2021/07/11 14:27:33;;;;;;;2.00;1.80;;;;;;;;;;5035859;28;20574;-46
2021/07/11 14:29:59;;;;;;;2.83;1.80;;;;;;;;;;5036527;28;20184;-46
2021/07/11 14:32:25;;;;;;;2.28;1.80;;;;;;;;;;5037264;28;20187;-47
2021/07/11 14:34:51;;;;;;;2.63;1.70;;;;;;;;;;5036267;28;20455;-46
2021/07/11 14:37:18;;;;;;;1.85;1.60;;;;;;;;;;5035988;28;20246;-46
2021/07/11 14:39:44;;;;;;;17.67;2.13;;;;;;;;;;5035506;28;21709;-46
2021/07/11 14:42:11;;;;;;;1.33;1.23;;;;;;;;;;5036815;28;20180;-46